Time;durP1;ratioP1;P1;durP2;ratioP2;P2;SDS_P1;SDS_P2;PMS_P1;PMS_P2;Temp;Humidity;BMP_temperature;BMP_pressure;BME280_temperature;BME280_humidity;BME280_pressure;Samples;Min_cycle;Max_cycle;Signal;HPM_P1;HPM_P2
2022/06/01 00:01:18;;;;;;;1.20;1.10;;;17.10;71.10;17.60;96276.00;;;;5066706;28;20574;-88
2022/06/01 00:03:45;;;;;;;1.93;1.13;;;17.10;71.30;17.50;96283.00;;;;5070466;28;20200;-88
2022/06/01 00:06:13;;;;;;;1.73;1.20;;;17.00;71.30;17.50;96284.00;;;;5066575;28;20196;-87
2022/06/01 00:08:41;;;;;;;1.37;0.80;;;17.10;71.50;17.50;96284.00;;;;5067055;28;20203;-87
2022/06/01 00:11:09;;;;;;;1.30;1.20;;;17.10;71.70;17.50;96292.00;;;;5069471;28;20199;-87
2022/06/01 00:13:37;;;;;;;1.87;1.27;;;17.00;71.70;17.40;96295.00;;;;5066719;28;20200;-87
2022/06/01 00:16:07;;;;;;;1.27;1.17;;;17.00;71.60;17.40;96300.00;;;;5067868;28;20192;-87
2022/06/01 00:18:35;;;;;;;1.17;1.17;;;17.00;71.60;17.40;96295.00;;;;5069463;28;20705;-87
2022/06/01 00:21:03;;;;;;;1.27;1.17;;;17.00;71.60;17.40;96289.00;;;;5075310;28;20192;-87
2022/06/01 00:23:31;;;;;;;1.10;1.10;;;17.00;71.60;17.30;96285.00;;;;5067922;28;20211;-87
2022/06/01 00:25:58;;;;;;;1.17;1.17;;;16.90;71.70;17.30;96291.00;;;;5071618;28;20196;-88
2022/06/01 00:28:25;;;;;;;1.37;1.20;;;16.90;71.80;17.30;96289.00;;;;5074956;28;20196;-88
2022/06/01 00:30:52;;;;;;;1.47;1.37;;;17.10;72.00;17.30;96292.00;;;;5075457;28;20251;-86
2022/06/01 00:33:19;;;;;;;0.97;0.90;;;16.90;71.80;17.20;96295.00;;;;5073082;28;20202;-86
2022/06/01 00:35:48;;;;;;;1.10;1.10;;;16.90;71.90;17.20;96293.00;;;;5070731;28;20192;-87
2022/06/01 00:38:16;;;;;;;1.27;1.20;;;16.80;71.70;17.20;96289.00;;;;5071752;28;20212;-86
2022/06/01 00:40:44;;;;;;;1.27;1.17;;;16.80;71.70;17.20;96289.00;;;;5071981;28;20211;-86
2022/06/01 00:43:22;;;;;;;1.20;1.07;;;16.80;71.70;17.10;96280.00;;;;5070890;28;20192;-87
2022/06/01 00:45:50;;;;;;;1.43;1.33;;;16.70;71.70;17.10;96282.00;;;;5069325;28;20659;-86
2022/06/01 00:48:20;;;;;;;2.43;1.20;;;16.70;71.70;17.10;96290.00;;;;5067705;28;20219;-87
2022/06/01 00:50:49;;;;;;;1.30;1.10;;;16.90;71.90;17.00;96296.00;;;;5067477;28;20223;-87
2022/06/01 00:53:22;;;;;;;1.20;1.10;;;16.60;71.80;17.00;96287.00;;;;5070921;28;20202;-86
2022/06/01 00:55:55;;;;;;;1.30;1.30;;;16.60;72.00;16.90;96291.00;;;;5070091;28;20283;-86
2022/06/01 00:58:27;;;;;;;0.90;0.90;;;16.60;72.10;16.90;96283.00;;;;5071371;28;20223;-86
2022/06/01 01:00:57;;;;;;;1.87;1.70;;;16.50;72.10;16.90;96290.00;;;;5066269;28;20746;-87
2022/06/01 01:03:30;;;;;;;1.43;1.33;;;16.50;72.10;16.80;96304.00;;;;5072120;28;20250;-87
2022/06/01 01:06:11;;;;;;;1.50;1.40;;;16.50;72.10;16.80;96298.00;;;;5063351;28;20188;-86
2022/06/01 01:08:38;;;;;;;1.40;1.30;;;16.40;72.00;16.80;96295.00;;;;5066718;28;20291;-86
2022/06/01 01:11:07;;;;;;;1.57;1.13;;;16.40;72.00;16.70;96295.00;;;;5069335;28;20187;-86
2022/06/01 01:13:35;;;;;;;1.23;1.13;;;16.40;72.10;16.70;96297.00;;;;5068865;28;20195;-86
2022/06/01 01:16:04;;;;;;;1.20;1.20;;;16.20;72.00;16.70;96294.00;;;;5069665;28;20279;-87
2022/06/01 01:18:38;;;;;;;1.53;1.43;;;16.30;72.10;16.60;96300.00;;;;5068026;28;20247;-86
2022/06/01 01:21:18;;;;;;;1.30;1.27;;;16.30;72.10;16.60;96296.00;;;;5070055;28;20670;-86
2022/06/01 01:23:56;;;;;;;1.70;1.40;;;16.20;72.10;16.60;96289.00;;;;5065872;28;20204;-85
2022/06/01 01:26:26;;;;;;;1.87;1.40;;;16.20;72.10;16.50;96290.00;;;;5069057;28;20719;-86
2022/06/01 01:28:54;;;;;;;1.43;1.33;;;16.20;72.10;16.50;96290.00;;;;5069809;28;20224;-87
2022/06/01 01:31:24;;;;;;;1.60;1.50;;;16.10;72.10;16.50;96292.00;;;;5070723;28;20778;-88
2022/06/01 01:33:53;;;;;;;1.63;1.33;;;16.10;72.00;16.40;96288.00;;;;5069859;28;20214;-87
2022/06/01 01:36:30;;;;;;;1.60;1.50;;;16.00;72.10;16.40;96300.00;;;;5070164;28;20286;-86
2022/06/01 01:39:07;;;;;;;1.13;1.13;;;16.00;72.30;16.30;96290.00;;;;5069735;28;20250;-86
2022/06/01 01:41:41;;;;;;;1.80;1.23;;;15.90;72.30;16.30;96297.00;;;;5070339;28;20222;-86
2022/06/01 01:44:15;;;;;;;1.23;1.20;;;16.00;72.50;16.30;96297.00;;;;5062566;28;20200;-86
2022/06/01 01:46:47;;;;;;;1.10;1.00;;;15.90;72.60;16.30;96290.00;;;;5068564;28;20200;-85
2022/06/01 01:49:15;;;;;;;1.00;1.00;;;15.90;72.70;16.30;96294.00;;;;5070791;28;20219;-86
2022/06/01 01:51:42;;;;;;;1.87;1.20;;;15.90;72.80;16.30;96295.00;;;;5069636;28;20203;-86
2022/06/01 01:54:26;;;;;;;1.27;1.17;;;15.90;72.90;16.20;96290.00;;;;5065223;28;20200;-87
2022/06/01 01:57:14;;;;;;;1.90;1.17;;;15.90;72.90;16.20;96295.00;;;;5065833;28;20214;-86
2022/06/01 01:59:54;;;;;;;1.30;1.20;;;15.90;73.00;16.20;96284.00;;;;5067963;28;20222;-86
2022/06/01 02:02:33;;;;;;;1.20;1.10;;;15.90;72.90;16.20;96291.00;;;;5070243;28;20210;-86
2022/06/01 02:08:05;;;;;;;1.20;1.20;;;15.60;72.70;16.10;96291.00;;;;5073721;28;20571;-86
2022/06/01 02:13:22;;;;;;;1.30;1.20;;;15.70;72.80;16.00;96289.00;;;;5077354;28;20203;-85
2022/06/01 02:15:53;;;;;;;1.50;1.17;;;15.70;72.80;16.00;96290.00;;;;5074480;28;20198;-87
2022/06/01 02:18:27;;;;;;;1.00;1.00;;;15.70;72.80;16.00;96283.00;;;;5072534;28;20226;-86
2022/06/01 02:21:01;;;;;;;1.13;1.13;;;15.60;72.80;16.00;96279.00;;;;5056967;28;20204;-86
2022/06/01 02:23:31;;;;;;;1.40;1.30;;;15.60;72.90;15.90;96288.00;;;;5061423;28;20192;-86
2022/06/01 02:26:01;;;;;;;1.27;1.20;;;15.60;73.00;15.90;96287.00;;;;5066450;28;20692;-87
2022/06/01 02:28:30;;;;;;;1.43;1.33;;;15.60;73.00;15.80;96288.00;;;;5070288;28;20202;-85
2022/06/01 02:30:59;;;;;;;1.20;1.10;;;15.50;73.10;15.80;96294.00;;;;5072974;28;20216;-87
2022/06/01 02:33:33;;;;;;;0.93;0.93;;;15.60;73.20;15.80;96296.00;;;;5072319;28;20783;-86
2022/06/01 02:36:03;;;;;;;0.97;0.97;;;15.50;73.30;15.80;96288.00;;;;5069083;28;20574;-86
2022/06/01 02:38:36;;;;;;;1.27;1.20;;;15.40;73.30;15.80;96286.00;;;;5065457;28;20730;-87
2022/06/01 02:41:04;;;;;;;1.00;1.00;;;15.40;73.50;15.80;96296.00;;;;5070225;28;20666;-87
2022/06/01 02:43:33;;;;;;;1.07;1.00;;;15.40;73.60;15.80;96304.00;;;;5059983;28;20196;-86
2022/06/01 02:46:00;;;;;;;1.07;1.07;;;15.40;73.70;15.80;96306.00;;;;5067661;28;20278;-87
2022/06/01 02:48:27;;;;;;;1.43;1.10;;;15.50;73.80;15.70;96317.00;;;;5063270;28;20200;-87
2022/06/01 02:50:54;;;;;;;1.23;1.13;;;15.30;73.80;15.70;96311.00;;;;5062605;28;20303;-85
2022/06/01 02:53:22;;;;;;;0.83;0.83;;;15.40;73.90;15.70;96313.00;;;;5062722;28;20200;-86
2022/06/01 02:55:49;;;;;;;1.33;1.17;;;15.30;73.80;15.70;96323.00;;;;5067135;28;20196;-86
2022/06/01 02:58:16;;;;;;;1.50;0.80;;;15.30;73.80;15.70;96316.00;;;;5065451;28;20708;-85
2022/06/01 03:00:44;;;;;;;1.37;1.20;;;15.30;73.80;15.70;96315.00;;;;5068089;28;20250;-86
2022/06/01 03:03:11;;;;;;;0.80;0.80;;;15.30;73.90;15.70;96316.00;;;;5067169;28;20192;-87
2022/06/01 03:05:41;;;;;;;1.10;1.10;;;15.30;73.90;15.60;96313.00;;;;5056599;28;20672;-86
2022/06/01 03:08:10;;;;;;;1.30;1.20;;;15.30;74.20;15.60;96327.00;;;;5068494;28;20693;-87
2022/06/01 03:10:37;;;;;;;1.30;1.20;;;15.30;74.50;15.60;96324.00;;;;5070129;28;20220;-86
2022/06/01 03:13:04;;;;;;;1.13;1.10;;;15.30;74.70;15.60;96325.00;;;;5060018;28;20287;-87
2022/06/01 03:15:32;;;;;;;1.30;1.00;;;15.20;75.50;15.60;96326.00;;;;5061648;28;20219;-86
2022/06/01 03:18:01;;;;;;;1.20;1.10;;;15.30;74.80;15.60;96321.00;;;;5071628;28;20220;-86
2022/06/01 03:20:29;;;;;;;1.00;1.00;;;15.20;74.50;15.50;96319.00;;;;5067587;28;20307;-87
2022/06/01 03:22:58;;;;;;;0.80;0.80;;;15.20;74.50;15.50;96307.00;;;;5071684;28;20204;-86
2022/06/01 03:25:26;;;;;;;1.13;1.03;;;15.20;74.50;15.60;96313.00;;;;5069678;28;20673;-86
2022/06/01 03:27:57;;;;;;;1.07;1.00;;;15.20;74.60;15.60;96311.00;;;;5072062;28;20196;-87
2022/06/01 03:30:25;;;;;;;1.00;1.00;;;15.20;74.70;15.60;96316.00;;;;5071034;28;20701;-86
2022/06/01 03:32:52;;;;;;;0.90;0.90;;;15.20;74.80;15.60;96322.00;;;;5061463;28;20215;-86
2022/06/01 03:35:24;;;;;;;1.20;1.10;;;15.20;74.80;15.60;96320.00;;;;5070664;28;20282;-86
2022/06/01 03:37:52;;;;;;;1.00;1.00;;;15.20;74.80;15.60;96321.00;;;;5069019;28;20203;-86
2022/06/01 03:40:22;;;;;;;1.57;1.10;;;15.10;74.70;15.60;96318.00;;;;5071225;28;20215;-87
2022/06/01 03:42:50;;;;;;;1.10;1.10;;;15.20;74.90;15.60;96328.00;;;;5071998;28;20202;-86
2022/06/01 03:48:02;;;;;;;1.10;1.00;;;15.20;74.90;15.60;96330.00;;;;5065211;28;20195;-86
2022/06/01 03:50:31;;;;;;;0.90;0.90;;;15.20;74.90;15.60;96332.00;;;;5067039;28;20217;-87
2022/06/01 03:52:58;;;;;;;0.87;0.87;;;15.20;75.00;15.60;96331.00;;;;5071128;28;20194;-86
2022/06/01 03:55:26;;;;;;;1.33;0.90;;;15.30;75.10;15.60;96334.00;;;;5070162;28;20284;-86
2022/06/01 03:57:53;;;;;;;2.10;0.90;;;15.20;75.20;15.60;96326.00;;;;5070114;28;20219;-86
2022/06/01 04:00:26;;;;;;;1.20;1.10;;;15.20;75.30;15.60;96333.00;;;;5070969;28;20216;-86
2022/06/01 04:02:54;;;;;;;1.27;1.17;;;15.20;75.30;15.70;96334.00;;;;5070027;28;20222;-87
2022/06/01 04:05:23;;;;;;;1.33;0.90;;;15.30;75.40;15.70;96338.00;;;;5070481;28;20224;-86
2022/06/01 04:07:52;;;;;;;0.97;0.97;;;15.30;75.40;15.70;96337.00;;;;5069646;28;20192;-87
2022/06/01 04:10:21;;;;;;;1.50;1.30;;;15.30;75.50;15.70;96338.00;;;;5070476;28;20216;-86
2022/06/01 04:12:48;;;;;;;1.23;1.20;;;15.30;75.50;15.70;96343.00;;;;5070621;28;20257;-86
2022/06/01 04:15:16;;;;;;;1.00;0.93;;;15.30;75.60;15.70;96338.00;;;;5070662;28;20279;-87
2022/06/01 04:17:44;;;;;;;1.00;1.00;;;15.30;75.70;15.70;96327.00;;;;5068499;28;20194;-85
2022/06/01 04:20:13;;;;;;;1.23;1.13;;;15.30;75.60;15.70;96346.00;;;;5067128;28;20622;-86
2022/06/01 04:22:43;;;;;;;1.20;1.10;;;15.30;75.60;15.70;96336.00;;;;5068791;28;20199;-86
2022/06/01 04:25:16;;;;;;;1.70;1.10;;;15.30;75.60;15.70;96349.00;;;;5071574;28;20200;-84
2022/06/01 04:27:43;;;;;;;0.93;0.90;;;15.30;75.70;15.80;96357.00;;;;5073553;28;20697;-83
2022/06/01 04:30:15;;;;;;;1.00;1.00;;;15.30;75.70;15.80;96361.00;;;;5076467;28;20509;-83
2022/06/01 04:32:44;;;;;;;1.47;1.07;;;15.30;75.70;15.80;96359.00;;;;5072906;28;20212;-83
2022/06/01 04:35:11;;;;;;;1.83;1.40;;;15.30;75.80;15.80;96352.00;;;;5071024;28;20192;-83
2022/06/01 04:37:39;;;;;;;1.00;1.00;;;15.30;75.80;15.90;96363.00;;;;5070856;28;20202;-84
2022/06/01 04:40:08;;;;;;;1.00;1.00;;;15.40;76.00;15.90;96362.00;;;;5072758;28;20215;-83
2022/06/01 04:42:38;;;;;;;1.10;1.10;;;15.40;76.20;15.90;96360.00;;;;5066047;28;20212;-84
2022/06/01 04:45:07;;;;;;;1.20;1.10;;;15.40;76.40;16.00;96362.00;;;;5069367;28;20207;-83
2022/06/01 04:47:34;;;;;;;1.30;1.20;;;15.40;76.90;16.10;96364.00;;;;5071243;28;20287;-84
2022/06/01 04:50:01;;;;;;;1.43;1.20;;;15.50;77.50;16.20;96364.00;;;;5055115;28;20236;-83
2022/06/01 04:52:28;;;;;;;1.00;1.00;;;15.50;77.90;16.30;96361.00;;;;5069327;28;20661;-83
2022/06/01 04:54:55;;;;;;;1.20;1.10;;;15.60;78.20;16.40;96359.00;;;;5071638;28;20204;-83
2022/06/01 04:57:22;;;;;;;0.87;0.87;;;15.70;78.60;16.50;96353.00;;;;5071975;28;20203;-84
2022/06/01 04:59:51;;;;;;;1.17;1.13;;;15.80;78.90;16.70;96364.00;;;;5071245;28;20224;-84
2022/06/01 05:02:18;;;;;;;1.37;1.27;;;15.90;78.90;16.80;96364.00;;;;5070571;28;20674;-84
2022/06/01 05:04:45;;;;;;;1.10;1.10;;;16.00;79.00;16.90;96368.00;;;;5074236;28;20565;-83
2022/06/01 05:07:12;;;;;;;1.10;1.00;;;16.10;79.00;17.00;96362.00;;;;5076926;28;20196;-83
2022/06/01 05:09:39;;;;;;;1.37;1.27;;;16.20;78.90;17.00;96366.00;;;;5076212;28;20220;-85
2022/06/01 05:12:07;;;;;;;0.80;0.80;;;16.30;78.80;17.10;96375.00;;;;5075066;28;20791;-83
2022/06/01 05:14:34;;;;;;;0.90;0.90;;;16.40;78.70;17.10;96377.00;;;;5076152;28;20220;-84
2022/06/01 05:17:03;;;;;;;1.47;1.37;;;16.40;78.50;17.20;96371.00;;;;5073721;28;20196;-84
2022/06/01 05:19:32;;;;;;;1.10;1.00;;;16.50;78.30;17.20;96367.00;;;;5074893;28;20654;-84
2022/06/01 05:21:59;;;;;;;1.47;0.90;;;16.60;78.20;17.30;96363.00;;;;5076341;28;20188;-84
2022/06/01 05:24:26;;;;;;;1.13;1.10;;;16.60;78.20;17.30;96370.00;;;;5074350;28;20194;-84
2022/06/01 05:26:53;;;;;;;2.57;1.00;;;16.70;78.20;17.40;96375.00;;;;5073734;28;20568;-84
2022/06/01 05:29:22;;;;;;;1.07;0.97;;;16.80;78.20;17.40;96371.00;;;;5076232;28;20724;-84
2022/06/01 05:31:49;;;;;;;0.87;0.87;;;16.80;78.10;17.50;96379.00;;;;5074095;28;20263;-84
2022/06/01 05:34:18;;;;;;;1.00;1.00;;;16.90;78.20;17.60;96374.00;;;;5072535;28;20700;-84
2022/06/01 05:36:45;;;;;;;1.43;1.27;;;16.90;78.20;17.60;96368.00;;;;5074757;28;20666;-84
2022/06/01 05:39:12;;;;;;;1.00;1.00;;;17.00;78.20;17.70;96379.00;;;;5078645;28;20288;-83
2022/06/01 05:41:40;;;;;;;1.20;1.00;;;17.10;78.00;17.80;96382.00;;;;5076971;28;20207;-84
2022/06/01 05:44:07;;;;;;;1.00;1.00;;;17.10;77.90;17.80;96384.00;;;;5074773;28;20200;-84
2022/06/01 05:46:36;;;;;;;1.10;1.10;;;17.20;78.00;17.90;96385.00;;;;5075960;28;20202;-85
2022/06/01 05:49:03;;;;;;;1.27;1.10;;;17.30;78.10;17.90;96387.00;;;;5076622;28;20212;-85
2022/06/01 05:51:32;;;;;;;1.23;1.13;;;17.30;77.90;18.00;96377.00;;;;5057712;28;20205;-85
2022/06/01 05:53:59;;;;;;;1.03;0.97;;;17.40;78.50;18.10;96382.00;;;;5067363;28;20200;-85
2022/06/01 05:56:26;;;;;;;1.30;1.20;;;17.40;77.70;18.10;96383.00;;;;5072879;28;20203;-86
2022/06/01 05:58:53;;;;;;;1.17;1.10;;;17.60;77.60;18.20;96383.00;;;;5072912;28;20220;-85
2022/06/01 06:01:22;;;;;;;1.23;1.00;;;17.60;77.50;18.20;96386.00;;;;5072516;28;20279;-84
2022/06/01 06:03:49;;;;;;;1.00;1.00;;;17.60;77.40;18.20;96385.00;;;;5072556;28;20196;-84
2022/06/01 06:06:17;;;;;;;1.03;1.00;;;17.70;77.40;18.30;96381.00;;;;5069462;28;20196;-86
2022/06/01 06:08:49;;;;;;;1.00;1.00;;;17.70;77.30;18.30;96376.00;;;;5069085;28;20202;-86
2022/06/01 06:11:18;;;;;;;1.20;1.10;;;17.80;77.20;18.40;96381.00;;;;5073527;28;20227;-84
2022/06/01 06:13:46;;;;;;;1.10;1.10;;;17.80;77.20;18.50;96383.00;;;;5069431;28;20761;-85
2022/06/01 06:16:15;;;;;;;1.50;1.33;;;17.90;77.20;18.50;96381.00;;;;5068086;28;20956;-84
2022/06/01 06:18:42;;;;;;;2.40;1.37;;;17.90;77.10;18.60;96389.00;;;;5067187;28;20196;-85
2022/06/01 06:21:10;;;;;;;1.10;1.10;;;18.00;77.20;18.60;96384.00;;;;5070382;28;20189;-84
2022/06/01 06:23:37;;;;;;;2.03;1.10;;;18.10;77.30;18.70;96379.00;;;;5065512;28;20219;-85
2022/06/01 06:26:06;;;;;;;1.20;1.20;;;18.10;77.30;18.80;96383.00;;;;5062762;28;20210;-85
2022/06/01 06:28:34;;;;;;;2.27;1.37;;;18.20;77.30;18.80;96388.00;;;;5070838;28;20208;-85
2022/06/01 06:31:02;;;;;;;1.20;1.10;;;18.30;77.10;18.90;96381.00;;;;5118163;22;20295;-88
2022/06/01 06:33:30;;;;;;;1.50;1.30;;;18.30;77.00;19.00;96374.00;;;;5091643;28;20200;-88
2022/06/01 06:36:00;;;;;;;1.23;1.20;;;18.40;77.10;19.00;96381.00;;;;5087962;28;20195;-89
2022/06/01 06:38:32;;;;;;;1.40;1.30;;;18.40;77.20;19.10;96389.00;;;;5088854;28;20261;-89
2022/06/01 06:41:01;;;;;;;1.30;1.20;;;18.50;77.20;19.20;96394.00;;;;5074033;28;20216;-89
2022/06/01 06:43:33;;;;;;;1.30;1.20;;;18.60;77.30;19.30;96393.00;;;;5072274;28;20239;-88
2022/06/01 06:46:06;;;;;;;1.20;1.10;;;19.20;77.70;19.40;96385.00;;;;5068990;28;20197;-90
2022/06/01 06:48:33;;;;;;;1.43;1.33;;;18.80;77.30;19.50;96382.00;;;;5068799;28;20214;-88
2022/06/01 06:51:01;;;;;;;1.47;1.40;;;18.80;77.20;19.60;96385.00;;;;5067794;28;20395;-90
2022/06/01 06:53:29;;;;;;;1.20;1.10;;;18.90;77.10;19.80;96387.00;;;;5070934;28;20309;-86
2022/06/01 06:55:57;;;;;;;1.93;1.27;;;19.10;77.00;19.90;96389.00;;;;5070701;28;20200;-89
2022/06/01 06:58:25;;;;;;;1.93;1.57;;;19.10;76.60;20.00;96391.00;;;;5078872;28;20290;-88
2022/06/01 07:00:53;;;;;;;1.50;1.40;;;19.30;76.60;20.10;96381.00;;;;5068643;28;20230;-89
2022/06/01 07:03:20;;;;;;;1.40;1.40;;;19.30;76.50;20.30;96391.00;;;;5071011;28;20211;-87
2022/06/01 07:08:35;;;;;;;1.90;1.43;;;19.60;76.40;20.60;96389.00;;;;5071578;28;20215;-89
2022/06/01 07:11:05;;;;;;;1.30;1.20;;;19.80;76.50;20.80;96386.00;;;;5067985;28;21199;-89
2022/06/01 07:13:33;;;;;;;2.20;1.53;;;19.90;76.40;21.00;96375.00;;;;5068723;28;20566;-90
2022/06/01 07:16:11;;;;;;;1.70;1.60;;;20.10;76.10;21.20;96385.00;;;;5065981;28;20203;-89
2022/06/01 07:18:41;;;;;;;1.50;1.40;;;20.30;75.10;21.40;96383.00;;;;5072664;28;20222;-89
2022/06/01 07:21:09;;;;;;;1.13;1.13;;;20.50;75.20;21.60;96379.00;;;;5072447;28;20593;-90
2022/06/01 07:23:38;;;;;;;2.27;1.63;;;20.60;74.70;21.80;96383.00;;;;5081205;28;20237;-90
2022/06/01 07:26:09;;;;;;;1.63;1.53;;;20.80;74.10;22.00;96386.00;;;;5068523;28;20204;-89
2022/06/01 07:28:37;;;;;;;2.40;1.23;;;21.00;73.40;22.20;96393.00;;;;5072405;28;20299;-90
2022/06/01 07:31:06;;;;;;;1.40;1.30;;;21.20;73.50;22.40;96395.00;;;;5071306;28;20226;-89
2022/06/01 07:33:36;;;;;;;1.27;1.17;;;21.30;73.30;22.60;96395.00;;;;5071694;28;20598;-90
2022/06/01 07:36:07;;;;;;;0.97;0.83;;;21.50;73.10;22.90;96390.00;;;;5071535;28;20261;-89
2022/06/01 07:44:09;;;;;;;1.10;0.97;;;22.10;72.10;23.60;96392.00;;;;5047477;28;20700;-90
2022/06/01 07:46:38;;;;;;;1.63;1.30;;;22.30;72.00;23.90;96395.00;;;;5066945;28;20610;-90
2022/06/01 07:49:10;;;;;;;1.10;1.00;;;22.50;71.20;24.10;96394.00;;;;5070786;28;20370;-90
2022/06/01 07:51:42;;;;;;;1.00;0.90;;;22.70;70.10;24.30;96392.00;;;;5071747;28;20238;-89
2022/06/01 07:54:10;;;;;;;1.83;1.10;;;22.80;70.00;24.60;96391.00;;;;5071240;28;20207;-86
2022/06/01 07:56:38;;;;;;;1.13;0.90;;;23.10;70.10;24.80;96383.00;;;;5071620;28;20291;-88
2022/06/01 07:59:06;;;;;;;0.90;0.90;;;23.20;69.80;25.10;96382.00;;;;5070618;28;20187;-89
2022/06/01 08:01:33;;;;;;;0.80;0.80;;;23.40;69.30;25.30;96406.00;;;;5070461;28;20214;-89
2022/06/01 08:04:05;;;;;;;1.27;1.17;;;23.60;68.90;25.60;96384.00;;;;5072139;28;20199;-87
2022/06/01 08:06:36;;;;;;;2.07;1.30;;;23.70;67.40;25.80;96389.00;;;;5071695;28;20203;-89
2022/06/01 08:09:05;;;;;;;1.07;1.00;;;24.00;67.00;26.00;96391.00;;;;5071182;28;20206;-89
2022/06/01 08:14:18;;;;;;;0.97;0.97;;;24.40;66.40;26.60;96402.00;;;;5071298;28;20294;-90
2022/06/01 08:16:46;;;;;;;1.17;1.07;;;24.60;66.00;26.90;96391.00;;;;5071206;28;20238;-89
2022/06/01 08:19:16;;;;;;;1.03;1.03;;;24.80;65.50;27.30;96402.00;;;;5071488;28;20250;-89
2022/06/01 08:21:45;;;;;;;1.60;0.83;;;25.00;65.30;27.70;96403.00;;;;5051662;28;20220;-88
2022/06/01 08:24:13;;;;;;;0.70;0.70;;;25.20;64.40;28.10;96396.00;;;;5056882;28;20213;-88
2022/06/01 08:26:40;;;;;;;1.00;0.87;;;25.40;64.90;28.40;96395.00;;;;5069943;28;20204;-88
2022/06/01 08:29:08;;;;;;;0.97;0.90;;;25.60;64.40;28.80;96395.00;;;;5071117;28;20223;-88
2022/06/01 08:31:35;;;;;;;0.80;0.80;;;25.80;64.00;29.10;96399.00;;;;5070488;28;20246;-87
2022/06/01 08:34:05;;;;;;;1.30;1.00;;;26.10;63.70;29.40;96401.00;;;;5070930;28;20191;-87
2022/06/01 08:36:33;;;;;;;0.80;0.80;;;26.30;62.50;29.80;96399.00;;;;5070106;28;20306;-87
2022/06/01 08:39:05;;;;;;;0.77;0.77;;;26.50;62.50;30.10;96398.00;;;;5070941;28;20664;-87
2022/06/01 08:41:37;;;;;;;1.25;0.80;;;26.80;60.90;30.40;96405.00;;;;5071241;28;20331;-88
2022/06/01 08:44:22;;;;;;;0.80;0.80;;;27.00;60.20;30.70;96403.00;;;;5063782;28;20283;-88
2022/06/01 08:46:50;;;;;;;1.23;0.73;;;27.20;58.00;31.00;96401.00;;;;5069917;28;20215;-87
2022/06/01 08:49:25;;;;;;;0.60;0.60;;;27.50;58.40;31.30;96411.00;;;;5070707;28;20199;-88
2022/06/01 08:51:53;;;;;;;0.70;0.70;;;27.70;57.00;31.70;96416.00;;;;5069851;28;20207;-88
2022/06/01 08:54:23;;;;;;;0.80;0.80;;;28.00;57.20;32.00;96424.00;;;;5069528;28;20202;-88
2022/06/01 08:56:54;;;;;;;0.80;0.80;;;28.30;56.50;32.30;96418.00;;;;5070408;28;20196;-87
2022/06/01 08:59:36;;;;;;;0.90;0.52;;;28.50;55.90;32.60;96418.00;;;;5066368;28;20579;-88
2022/06/01 09:02:37;;;;;;;0.70;0.70;;;28.80;54.30;33.00;96420.00;;;;5072324;28;20574;-87
2022/06/01 09:05:19;;;;;;;0.52;0.52;;;29.10;53.80;33.30;96415.00;;;;5069383;28;20192;-88
2022/06/01 09:07:54;;;;;;;1.10;0.50;;;29.50;53.50;33.60;96420.00;;;;5070611;28;20242;-89
2022/06/01 09:11:00;;;;;;;1.08;0.95;;;29.70;51.50;33.90;96426.00;;;;5068789;28;20212;-88
2022/06/01 09:13:41;;;;;;;1.13;0.60;;;30.20;51.00;34.10;96418.00;;;;5055925;28;20208;-87
2022/06/01 09:16:15;;;;;;;0.77;0.68;;;30.40;50.10;34.10;96420.00;;;;5073926;28;20684;-87
2022/06/01 09:18:47;;;;;;;2.80;0.63;;;30.60;50.70;34.10;96415.00;;;;5074379;28;20195;-89
2022/06/01 09:24:25;;;;;;;3.13;0.70;;;31.10;47.90;34.10;96420.00;;;;5059730;28;20239;-89
2022/06/01 09:27:02;;;;;;;1.05;0.40;;;31.30;47.20;34.30;96409.00;;;;5075161;28;20286;-88
2022/06/01 09:29:34;;;;;;;0.70;0.43;;;31.50;48.10;34.50;96415.00;;;;5073706;28;20256;-87
2022/06/01 09:32:09;;;;;;;0.60;0.57;;;31.80;48.00;34.70;96419.00;;;;5054838;28;20594;-89
2022/06/01 09:34:47;;;;;;;0.88;0.70;;;32.10;47.50;34.90;96414.00;;;;5071884;28;20229;-89
2022/06/01 09:37:23;;;;;;;0.65;0.60;;;32.50;46.10;34.90;96414.00;;;;5074666;28;20670;-88
2022/06/01 09:39:57;;;;;;;1.55;0.70;;;32.80;44.50;34.90;96403.00;;;;5073908;28;20200;-88
2022/06/01 09:42:34;;;;;;;0.75;0.60;;;32.80;45.10;34.90;96401.00;;;;5073983;28;20666;-88
2022/06/01 09:45:04;;;;;;;0.40;0.40;;;33.20;44.30;34.90;96404.00;;;;5069912;28;20241;-89
2022/06/01 09:47:39;;;;;;;0.50;0.50;;;33.30;44.70;34.80;96402.00;;;;5073107;28;20690;-89
2022/06/01 09:50:23;;;;;;;2.25;0.60;;;33.50;43.80;34.70;96409.00;;;;5073414;28;20218;-89
2022/06/01 09:52:58;;;;;;;2.78;0.50;;;33.60;43.90;34.70;96412.00;;;;5073595;28;20203;-89
2022/06/01 09:55:28;;;;;;;0.93;0.60;;;33.70;43.50;34.70;96404.00;;;;5066108;28;20196;-89
2022/06/01 09:58:12;;;;;;;1.40;0.63;;;33.80;42.70;34.60;96415.00;;;;5071919;28;20227;-90
2022/06/01 10:06:25;;;;;;;0.65;0.40;;;34.20;43.60;34.80;96406.00;;;;5073106;28;20668;-90
2022/06/01 10:09:01;;;;;;;0.50;0.50;;;34.40;42.50;34.80;96397.00;;;;5072523;28;20273;-90
2022/06/01 10:11:35;;;;;;;1.48;0.40;;;34.60;42.20;34.80;96396.00;;;;5071814;28;20221;-89
2022/06/01 10:14:23;;;;;;;0.70;0.47;;;34.70;42.20;34.80;96393.00;;;;5073331;28;20195;-89
2022/06/01 10:17:15;;;;;;;0.90;0.63;;;34.80;41.10;34.90;96404.00;;;;5072251;28;20596;-88
2022/06/01 10:19:52;;;;;;;0.90;0.50;;;35.00;41.50;35.00;96413.00;;;;5073437;28;20234;-89
2022/06/01 10:22:33;;;;;;;1.10;0.50;;;35.20;41.10;35.00;96412.00;;;;5052977;28;20196;-89
2022/06/01 10:25:11;;;;;;;0.40;0.40;;;35.20;40.20;34.80;96406.00;;;;5065099;28;20196;-89
2022/06/01 10:27:49;;;;;;;0.95;0.68;;;35.10;39.90;34.50;96417.00;;;;5070981;28;20236;-89
2022/06/01 10:30:24;;;;;;;0.38;0.38;;;34.90;38.90;34.20;96407.00;;;;5057907;28;20301;-89
2022/06/01 10:32:57;;;;;;;0.50;0.50;;;34.60;38.30;33.80;96408.00;;;;5072340;28;20282;-89
2022/06/01 10:35:37;;;;;;;0.60;0.60;;;34.20;38.20;33.50;96420.00;;;;5072518;28;20271;-88
2022/06/01 10:38:18;;;;;;;0.45;0.32;;;33.80;37.50;33.20;96414.00;;;;5072922;28;20661;-89
2022/06/01 10:41:00;;;;;;;0.88;0.73;;;33.40;38.70;32.80;96407.00;;;;5072793;28;20224;-89
2022/06/01 10:43:43;;;;;;;1.00;0.60;;;32.90;39.10;32.50;96400.00;;;;5073377;28;20200;-88
2022/06/01 10:46:42;;;;;;;2.03;0.57;;;32.60;38.50;32.20;96401.00;;;;5071372;28;20893;-89
2022/06/01 10:49:30;;;;;;;0.50;0.50;;;32.20;39.00;32.10;96400.00;;;;5069703;28;20287;-87
2022/06/01 10:52:11;;;;;;;0.85;0.50;;;31.90;40.00;32.00;96409.00;;;;5052314;28;20729;-89
2022/06/01 10:54:47;;;;;;;0.82;0.82;;;31.70;41.40;31.90;96411.00;;;;5057894;28;20204;-90
2022/06/01 10:57:21;;;;;;;2.35;0.88;;;31.50;41.10;31.80;96405.00;;;;5053566;28;20235;-89
2022/06/01 10:59:49;;;;;;;0.45;0.45;;;31.30;40.80;31.70;96412.00;;;;5053027;28;21010;-90
2022/06/01 11:02:42;;;;;;;0.70;0.60;;;31.10;41.10;31.40;96400.00;;;;5051643;28;20311;-89
2022/06/01 11:05:23;;;;;;;0.50;0.50;;;30.90;40.50;31.20;96398.00;;;;5055070;28;20287;-88
2022/06/01 11:08:10;;;;;;;0.70;0.68;;;30.70;40.30;31.10;96397.00;;;;5073062;28;20176;-89
2022/06/01 11:10:54;;;;;;;0.63;0.50;;;30.40;40.40;30.90;96392.00;;;;5072892;28;20220;-89
2022/06/01 11:13:46;;;;;;;0.60;0.60;;;30.20;41.00;30.80;96402.00;;;;5072622;28;20210;-90
2022/06/01 11:16:34;;;;;;;0.60;0.60;;;30.00;42.00;30.60;96394.00;;;;5072456;28;20196;-90
2022/06/01 11:19:18;;;;;;;0.50;0.50;;;29.80;41.70;30.40;96389.00;;;;5072998;28;20200;-90
2022/06/01 11:22:00;;;;;;;0.60;0.60;;;29.70;41.90;30.30;96394.00;;;;5051934;28;20314;-90
2022/06/01 11:24:51;;;;;;;1.15;0.80;;;29.50;42.00;30.20;96372.00;;;;5060370;28;20728;-90
2022/06/01 11:27:52;;;;;;;0.90;0.70;;;29.40;41.30;30.10;96371.00;;;;5073112;28;20185;-90
2022/06/01 11:30:23;;;;;;;1.52;0.60;;;29.30;42.00;30.00;96377.00;;;;5072577;28;20962;-90
2022/06/01 11:33:00;;;;;;;1.20;0.80;;;29.10;42.30;29.80;96379.00;;;;5072127;28;20642;-89
2022/06/01 11:35:40;;;;;;;0.47;0.47;;;29.00;42.30;29.70;96378.00;;;;5070943;28;20223;-90
2022/06/01 11:38:16;;;;;;;1.02;0.85;;;28.90;42.90;29.60;96375.00;;;;5071828;28;20199;-89
2022/06/01 11:40:50;;;;;;;0.65;0.60;;;28.80;43.10;29.50;96372.00;;;;5072198;28;20238;-90
2022/06/01 11:43:27;;;;;;;0.50;0.50;;;28.70;43.40;29.50;96375.00;;;;5073141;28;20267;-90